ADDS METAR Data INFO
IDs: Format: Raw Decoded Include TAF

Data at: 0026 UTC 11 Dec 2017

K2V5 110015Z AUTO 26006KT 10SM CLR 06/M18 A3027 RMK AO2
K2V5 102355Z AUTO 25006KT 10SM CLR 06/M18 A3027 RMK AO2
K2V5 102335Z AUTO 28007KT 10SM CLR 08/M18 A3027 RMK AO2
K2V5 102315Z AUTO 28005KT 10SM CLR 11/M18 A3027 RMK AO2
K2V5 102255Z AUTO 29005KT 10SM CLR 14/M18 A3027 RMK AO2
K2V5 102235Z AUTO 29005KT 10SM CLR 16/M18 A3027 RMK AO2
K2V5 102215Z AUTO 31008KT 10SM CLR 17/M18 A3028 RMK AO2
K2V5 102155Z AUTO 29010KT 10SM CLR 17/M18 A3029 RMK AO2
K2V5 102135Z AUTO 30009G14KT 10SM CLR 18/M17 A3028 RMK AO2
K2V5 102115Z AUTO 31007KT 10SM CLR 18/M17 A3028 RMK AO2
K2V5 102055Z AUTO 32008KT 10SM CLR 18/M17 A3029 RMK AO2
K2V5 102035Z AUTO 32009G17KT 10SM CLR 18/M17 A3030 RMK AO2
K2V5 102015Z AUTO 32010G16KT 10SM CLR 17/M16 A3030 RMK AO2
K2V5 101955Z AUTO 31011KT 10SM CLR 17/M16 A3031 RMK AO2
K2V5 101935Z AUTO 32012KT 10SM CLR 17/M17 A3033 RMK AO2
K2V5 101915Z AUTO 31014KT 10SM CLR 17/M16 A3033 RMK AO2
K2V5 101855Z AUTO 31013G17KT 10SM CLR 17/M16 A3034 RMK AO2
K2V5 101835Z AUTO 33012G20KT 10SM CLR 16/M16 A3035 RMK AO2
K2V5 101815Z AUTO 31013G20KT 10SM CLR 16/M16 A3036 RMK AO2
K2V5 101755Z AUTO 32017G21KT 10SM CLR 16/M16 A3037 RMK AO2
K2V5 101735Z AUTO 31013G18KT 10SM CLR 14/M15 A3037 RMK AO2
K2V5 101715Z AUTO 30016G19KT 10SM CLR 13/M16 A3037 RMK AO2
K2V5 101655Z AUTO 30016G19KT 10SM CLR 12/M16 A3037 RMK AO2
K2V5 101635Z AUTO 30014G18KT 10SM CLR 11/M16 A3036 RMK AO2
K2V5 101555Z AUTO 30013G16KT 10SM CLR 08/M16 A3036 RMK AO2
K2V5 101535Z AUTO 29013G17KT 10SM CLR 06/M16 A3035 RMK AO2
K2V5 101515Z AUTO 27008KT 10SM CLR 05/M16 A3035 RMK AO2
K2V5 101455Z AUTO 28011G16KT 10SM CLR 04/M16 A3034 RMK AO2
K2V5 101435Z AUTO 28006KT 10SM CLR 02/M16 A3034 RMK AO2
K2V5 101415Z AUTO 27009KT 10SM CLR 01/M16 A3034 RMK AO2
K2V5 101355Z AUTO 28009KT 10SM CLR 01/M16 A3034 RMK AO2
K2V5 101335Z AUTO 27011KT 10SM CLR 02/M16 A3034 RMK AO2
K2V5 101315Z AUTO 29013KT 10SM CLR 02/M15 A3034 RMK AO2
K2V5 101255Z AUTO 27009KT 10SM CLR 01/M15 A3033 RMK AO2
K2V5 101235Z AUTO 27006KT 10SM CLR M01/M15 A3034 RMK AO2
K2V5 101215Z AUTO 26007KT 10SM CLR M01/M15 A3033 RMK AO2
K2V5 101155Z AUTO 27008KT 10SM CLR 00/M15 A3033 RMK AO2
K2V5 101135Z AUTO 28010KT 10SM CLR 01/M15 A3033 RMK AO2
K2V5 101115Z AUTO 26006KT 10SM CLR 00/M15 A3033 RMK AO2
K2V5 101055Z AUTO 27011KT 10SM CLR 01/M15 A3032 RMK AO2
K2V5 101035Z AUTO 28009KT 10SM CLR 01/M15 A3032 RMK AO2
K2V5 101015Z AUTO 28011KT 10SM CLR 01/M15 A3032 RMK AO2
K2V5 100955Z AUTO 28010KT 10SM CLR 01/M15 A3033 RMK AO2
K2V5 100935Z AUTO 28009KT 10SM CLR 01/M15 A3033 RMK AO2
K2V5 100915Z AUTO 28010KT 10SM CLR 01/M15 A3033 RMK AO2
K2V5 100855Z AUTO 28010KT 10SM CLR 02/M15 A3033 RMK AO2
K2V5 100835Z AUTO 28011KT 10SM CLR 02/M15 A3032 RMK AO2
K2V5 100815Z AUTO 10SM CLR 02/M15 A3032 RMK AO2
K2V5 100755Z AUTO 10SM CLR 00/M15 A3032 RMK AO2
K2V5 100735Z AUTO 27011KT 10SM CLR 00/M14 A3032 RMK AO2
K2V5 100715Z AUTO 27010KT 10SM CLR 00/M14 A3032 RMK AO2
K2V5 100655Z AUTO 26009KT 10SM CLR 00/M14 A3032 RMK AO2
K2V5 100635Z AUTO 28009KT 10SM CLR 01/M14 A3032 RMK AO2
K2V5 100615Z AUTO 28008KT 10SM CLR 02/M13 A3033 RMK AO2
K2V5 100555Z AUTO 30013KT 10SM CLR 03/M13 A3032 RMK AO2
K2V5 100535Z AUTO 31013KT 10SM CLR 05/M13 A3031 RMK AO2
K2V5 100515Z AUTO 30012KT 10SM CLR 05/M13 A3031 RMK AO2
K2V5 100455Z AUTO 27007KT 10SM CLR 01/M13 A3030 RMK AO2
K2V5 100435Z AUTO 26008KT 10SM CLR 03/M13 A3030 RMK AO2
K2V5 100415Z AUTO 30012KT 10SM CLR 05/M13 A3030 RMK AO2
K2V5 100355Z AUTO 27006KT 10SM CLR 00/M13 A3030 RMK AO2
K2V5 100335Z AUTO 26007KT 10SM CLR 01/M14 A3030 RMK AO2
K2V5 100315Z AUTO 29010KT 10SM CLR 03/M13 A3030 RMK AO2
K2V5 100255Z AUTO 29009KT 10SM CLR 00/M14 A3030 RMK AO2
K2V5 100235Z AUTO 29008KT 10SM CLR 01/M15 A3030 RMK AO2
K2V5 100215Z AUTO 28009KT 10SM CLR 01/M15 A3030 RMK AO2
K2V5 100155Z AUTO 29009KT 10SM CLR 03/M15 A3029 RMK AO2
K2V5 100135Z AUTO 29010KT 10SM CLR 03/M15 A3029 RMK AO2
K2V5 100115Z AUTO 30009KT 10SM CLR 04/M15 A3029 RMK AO2
K2V5 100055Z AUTO 30007KT 10SM CLR 02/M15 A3028 RMK AO2
K2V5 100035Z AUTO 26004KT 10SM CLR 05/M15 A3028 RMK AO2
K2V5 100015Z AUTO 30007KT 10SM CLR 05/M15 A3027 RMK AO2
K2V5 092355Z AUTO 27004KT 10SM CLR 06/M16 A3026 RMK AO2
K2V5 092335Z AUTO 31006KT 10SM CLR 08/M17 A3026 RMK AO2
K2V5 092315Z AUTO 32009KT 10SM CLR 11/M16 A3025 RMK AO2
K2V5 092255Z AUTO 32010KT 10SM CLR 13/M16 A3025 RMK AO2
K2V5 092235Z AUTO 32012G21KT 10SM CLR 15/M16 A3025 RMK AO2
K2V5 092215Z AUTO 34012KT 10SM CLR 15/M16 A3025 RMK AO2
K2V5 092155Z AUTO 34014KT 10SM CLR 16/M16 A3024 RMK AO2
K2V5 092135Z AUTO 34018G25KT 10SM CLR 16/M16 A3024 RMK AO2
K2V5 092115Z AUTO 34016G21KT 10SM CLR 16/M15 A3024 RMK AO2
K2V5 092055Z AUTO 34015G23KT 10SM CLR 16/M15 A3024 RMK AO2
K2V5 092035Z AUTO 35018G24KT 10SM CLR 16/M15 A3025 RMK AO2
K2V5 092015Z AUTO 34019G25KT 10SM CLR 16/M15 A3025 RMK AO2
K2V5 091955Z AUTO 34016G29KT 10SM CLR 16/M14 A3025 RMK AO2
K2V5 091935Z AUTO 34012G20KT 10SM CLR 16/M13 A3025 RMK AO2
K2V5 091915Z AUTO 34015G21KT 10SM CLR 15/M13 A3026 RMK AO2
K2V5 091855Z AUTO 33017G21KT 10SM CLR 15/M13 A3027 RMK AO2
K2V5 091835Z AUTO 35016G22KT 10SM CLR 15/M13 A3027 RMK AO2
K2V5 091815Z AUTO 35016G26KT 10SM CLR 13/M13 A3028 RMK AO2
K2V5 091755Z AUTO 35014G20KT 10SM CLR 13/M13 A3029 RMK AO2
K2V5 091735Z AUTO 34018G26KT 10SM CLR 12/M13 A3029 RMK AO2
K2V5 091715Z AUTO 33012KT 10SM CLR 11/M11 A3029 RMK AO2
K2V5 091655Z AUTO 33012KT 10SM CLR 11/M11 A3030 RMK AO2
K2V5 091635Z AUTO 32009G14KT 10SM CLR 10/M11 A3030 RMK AO2
K2V5 091615Z AUTO 31008G15KT 10SM CLR 08/M11 A3030 RMK AO2
K2V5 091555Z AUTO 32008KT 10SM CLR 07/M10 A3029 RMK AO2
K2V5 091535Z AUTO 29006KT 10SM CLR 05/M10 A3028 RMK AO2
K2V5 091515Z AUTO 25005KT 10SM CLR 02/M10 A3028 RMK AO2
K2V5 091455Z AUTO 25004KT 10SM CLR 00/M10 A3027 RMK AO2
K2V5 091435Z AUTO 25004KT 10SM CLR M02/M11 A3026 RMK AO2
K2V5 091415Z AUTO 24006KT 10SM CLR M02/M11 A3026 RMK AO2
K2V5 091355Z AUTO 30009KT 10SM CLR 00/M11 A3025 RMK AO2
K2V5 091335Z AUTO 31010KT 10SM CLR 00/M11 A3025 RMK AO2
K2V5 091315Z AUTO 28007KT 10SM CLR M01/M11 A3024 RMK AO2
K2V5 091255Z AUTO 27008KT 10SM CLR 00/M11 A3024 RMK AO2
K2V5 091235Z AUTO 28007KT 10SM CLR 00/M11 A3024 RMK AO2